createdAt,value
2022-10-22T00:01:24.589Z,18.70
2022-10-22T00:03:53.229Z,18.80
2022-10-22T00:06:21.875Z,18.80
2022-10-22T00:08:50.711Z,18.70
2022-10-22T00:11:20.444Z,18.80
2022-10-22T00:13:49.033Z,18.90
2022-10-22T00:16:17.660Z,18.80
2022-10-22T00:18:46.310Z,18.90
2022-10-22T00:21:14.877Z,18.90
2022-10-22T00:23:44.413Z,18.90
2022-10-22T00:26:13.128Z,18.80
2022-10-22T00:28:41.945Z,18.80
2022-10-22T00:31:10.472Z,18.80
2022-10-22T00:33:41.372Z,18.80
2022-10-22T00:36:09.997Z,18.80
2022-10-22T00:38:38.731Z,18.80
2022-10-22T00:41:08.137Z,18.70
2022-10-22T00:43:38.231Z,18.80
2022-10-22T00:46:06.825Z,18.70
2022-10-22T00:48:35.500Z,18.70
2022-10-22T00:51:06.260Z,18.60
2022-10-22T00:53:39.312Z,18.60
2022-10-22T00:56:09.726Z,18.60
2022-10-22T00:58:39.828Z,18.50
2022-10-22T01:01:09.966Z,18.50
2022-10-22T01:03:38.504Z,18.40
2022-10-22T01:06:07.606Z,18.40
2022-10-22T01:08:37.767Z,18.40
2022-10-22T01:11:10.723Z,18.40
2022-10-22T01:13:49.815Z,18.30
2022-10-22T01:16:20.207Z,18.30
2022-10-22T01:18:53.508Z,18.20
2022-10-22T01:21:26.392Z,18.10
2022-10-22T01:24:05.637Z,17.50
2022-10-22T01:26:44.950Z,17.70
2022-10-22T01:29:15.043Z,17.80
2022-10-22T01:31:47.891Z,17.20
2022-10-22T01:34:18.017Z,17.30
2022-10-22T01:36:47.532Z,17.50
2022-10-22T01:39:17.094Z,17.30
2022-10-22T01:41:45.732Z,17.10
2022-10-22T01:44:27.995Z,16.90
2022-10-22T01:47:01.267Z,17.20
2022-10-22T01:49:37.040Z,17.40
2022-10-22T01:52:10.005Z,17.40
2022-10-22T01:54:40.387Z,17.50
2022-10-22T01:57:10.483Z,17.60
2022-10-22T01:59:46.626Z,17.30
2022-10-22T02:02:25.661Z,17.30
2022-10-22T02:05:12.619Z,17.40
2022-10-22T02:07:51.742Z,17.20
2022-10-22T02:10:20.815Z,17.20
2022-10-22T02:12:51.251Z,17.30
2022-10-22T02:15:21.398Z,17.30
2022-10-22T02:17:51.488Z,17.30
2022-10-22T02:20:27.298Z,17.30
2022-10-22T02:22:56.632Z,17.40
2022-10-22T02:25:45.775Z,17.30
2022-10-22T02:28:36.328Z,17.00
2022-10-22T02:31:11.708Z,17.10
2022-10-22T02:33:44.810Z,17.20
2022-10-22T02:36:14.198Z,16.80
2022-10-22T02:38:43.472Z,16.60
2022-10-22T02:41:12.041Z,16.90
2022-10-22T02:43:45.456Z,17.00
2022-10-22T02:46:14.028Z,17.00
2022-10-22T02:48:42.587Z,17.00
2022-10-22T02:51:11.252Z,17.00
2022-10-22T02:53:39.861Z,17.00
2022-10-22T02:56:08.736Z,17.00
2022-10-22T02:58:37.322Z,17.00
2022-10-22T03:01:06.078Z,17.00
2022-10-22T03:03:34.801Z,17.00
2022-10-22T03:06:03.413Z,17.00
2022-10-22T03:08:32.171Z,16.80
2022-10-22T03:11:00.832Z,16.30
2022-10-22T03:13:29.627Z,16.20
2022-10-22T03:15:58.203Z,16.60
2022-10-22T03:18:26.858Z,16.70
2022-10-22T03:21:06.200Z,16.70
2022-10-22T03:23:34.832Z,16.70
2022-10-22T03:26:03.595Z,16.70
2022-10-22T03:28:32.307Z,16.70
2022-10-22T03:31:01.205Z,16.70
2022-10-22T03:33:30.109Z,16.70
2022-10-22T03:35:58.978Z,15.90
2022-10-22T03:38:27.608Z,15.80
2022-10-22T03:40:56.242Z,16.10
2022-10-22T03:43:24.941Z,16.30
2022-10-22T03:45:53.504Z,16.40
2022-10-22T03:48:22.141Z,16.40
2022-10-22T03:50:50.731Z,15.90
2022-10-22T03:53:19.296Z,15.40
2022-10-22T03:55:47.863Z,15.80
2022-10-22T03:58:16.461Z,16.10
2022-10-22T04:00:45.049Z,16.10
2022-10-22T04:03:13.693Z,16.20
2022-10-22T04:05:42.288Z,16.30
2022-10-22T04:08:10.871Z,16.10
2022-10-22T04:10:39.432Z,16.20
2022-10-22T04:13:08.024Z,16.30
2022-10-22T04:15:37.370Z,16.30
2022-10-22T04:18:06.093Z,16.30
2022-10-22T04:20:35.627Z,16.30
2022-10-22T04:23:04.190Z,16.30
2022-10-22T04:25:32.757Z,16.20
2022-10-22T04:28:01.356Z,16.20
2022-10-22T04:30:29.923Z,16.20
2022-10-22T04:32:58.498Z,16.20
2022-10-22T04:35:27.085Z,16.30
2022-10-22T04:37:56.520Z,16.20
2022-10-22T04:40:25.088Z,16.20
2022-10-22T04:42:53.809Z,16.20
2022-10-22T04:45:22.385Z,16.20
2022-10-22T04:47:51.097Z,16.10
2022-10-22T04:50:19.749Z,16.10
2022-10-22T04:52:48.312Z,16.10
2022-10-22T04:55:17.004Z,16.10
2022-10-22T04:57:45.649Z,16.00
2022-10-22T05:00:16.016Z,16.00
2022-10-22T05:02:44.752Z,16.10
2022-10-22T05:05:13.518Z,16.10
2022-10-22T05:07:42.417Z,16.10
2022-10-22T05:10:11.172Z,16.00
2022-10-22T05:12:39.784Z,16.00
2022-10-22T05:15:09.522Z,16.00
2022-10-22T05:17:39.407Z,16.00
2022-10-22T05:20:09.015Z,16.10
2022-10-22T05:22:37.591Z,16.10
2022-10-22T05:25:06.521Z,16.00
2022-10-22T05:27:35.143Z,15.90
2022-10-22T05:30:03.767Z,16.00
2022-10-22T05:32:32.368Z,15.90
2022-10-22T05:35:00.951Z,15.80
2022-10-22T05:37:29.516Z,15.90
2022-10-22T05:40:06.786Z,15.60
2022-10-22T05:42:30.139Z,15.70
2022-10-22T05:44:58.679Z,15.80
2022-10-22T05:47:28.777Z,15.80
2022-10-22T05:50:00.415Z,15.80
2022-10-22T05:52:28.969Z,15.80
2022-10-22T05:54:57.539Z,15.40
2022-10-22T05:57:26.557Z,15.60
2022-10-22T05:59:55.071Z,15.60
2022-10-22T06:02:23.657Z,15.80
2022-10-22T06:04:52.328Z,15.80
2022-10-22T06:07:20.887Z,15.90
2022-10-22T06:09:50.587Z,15.90
2022-10-22T06:12:19.232Z,15.90
2022-10-22T06:14:48.381Z,15.80
2022-10-22T06:17:17.048Z,15.90
2022-10-22T06:19:46.047Z,15.90
2022-10-22T06:22:14.607Z,15.80
2022-10-22T06:24:45.110Z,15.70
2022-10-22T06:27:13.370Z,15.70
2022-10-22T06:29:41.927Z,15.70
2022-10-22T06:32:10.486Z,15.70
2022-10-22T06:34:39.075Z,15.70
2022-10-22T06:37:08.603Z,15.70
2022-10-22T06:39:37.179Z,15.70
2022-10-22T06:42:05.864Z,15.70
2022-10-22T06:44:35.661Z,15.70
2022-10-22T06:47:04.216Z,15.70
2022-10-22T06:49:32.912Z,15.80
2022-10-22T06:52:01.462Z,15.70
2022-10-22T06:54:30.031Z,15.70
2022-10-22T06:56:58.663Z,15.70
2022-10-22T06:59:27.231Z,15.70
2022-10-22T07:01:55.779Z,15.70
2022-10-22T07:04:24.475Z,15.60
2022-10-22T07:06:54.579Z,15.70
2022-10-22T07:09:24.086Z,15.70
2022-10-22T07:11:53.227Z,15.50
2022-10-22T07:14:21.791Z,15.80
2022-10-22T07:16:50.755Z,16.50
2022-10-22T07:19:19.316Z,17.10
2022-10-22T07:21:48.435Z,17.60
2022-10-22T07:24:17.728Z,18.10
2022-10-22T07:26:46.407Z,18.30
2022-10-22T07:29:18.587Z,18.80
2022-10-22T07:31:47.148Z,19.50
2022-10-22T07:34:15.811Z,19.90
2022-10-22T07:36:44.429Z,20.40
2022-10-22T07:39:13.069Z,20.80
2022-10-22T07:41:41.642Z,20.90
2022-10-22T07:44:10.269Z,21.20
2022-10-22T07:46:38.910Z,21.50
2022-10-22T07:49:07.481Z,21.70
2022-10-22T07:51:36.361Z,22.20
2022-10-22T07:54:05.072Z,22.30
2022-10-22T07:56:33.708Z,21.70
2022-10-22T08:01:33.199Z,22.60
2022-10-22T08:04:02.905Z,23.10
2022-10-22T08:06:31.463Z,22.70
2022-10-22T08:09:00.213Z,22.60
2022-10-22T08:11:30.519Z,23.20
2022-10-22T08:13:59.102Z,22.50
2022-10-22T08:16:27.839Z,22.30
2022-10-22T08:18:56.477Z,22.90
2022-10-22T08:21:25.040Z,23.20
2022-10-22T08:23:53.754Z,22.90
2022-10-22T08:26:23.736Z,23.30
2022-10-22T08:28:52.344Z,23.90
2022-10-22T08:31:20.918Z,21.60
2022-10-22T08:33:49.606Z,21.50
2022-10-22T08:36:19.876Z,22.30
2022-10-22T08:38:48.441Z,23.30
2022-10-22T08:41:21.039Z,22.80
2022-10-22T08:43:57.157Z,23.30
2022-10-22T08:46:30.232Z,22.80
2022-10-22T08:49:00.434Z,24.00
2022-10-22T08:51:30.577Z,25.10
2022-10-22T08:54:13.621Z,24.90
2022-10-22T08:56:43.753Z,22.50
2022-10-22T08:59:13.849Z,23.00
2022-10-22T09:01:47.030Z,23.50
2022-10-22T09:04:34.277Z,23.40
2022-10-22T09:07:02.932Z,23.50
2022-10-22T09:09:33.104Z,24.40
2022-10-22T09:12:02.373Z,25.20
2022-10-22T09:14:31.018Z,25.60
2022-10-22T09:17:04.836Z,25.30
2022-10-22T09:19:51.368Z,25.30
2022-10-22T09:22:21.509Z,25.90
2022-10-22T09:24:51.711Z,25.20
2022-10-22T09:27:21.726Z,25.50
2022-10-22T09:29:50.463Z,26.30
2022-10-22T09:32:19.225Z,25.10
2022-10-22T09:34:49.369Z,25.70
2022-10-22T09:37:19.575Z,26.90
2022-10-22T09:39:49.765Z,27.20
2022-10-22T09:42:19.533Z,25.60
2022-10-22T09:44:52.665Z,24.50
2022-10-22T09:47:37.275Z,25.70
2022-10-22T09:50:09.497Z,26.10
2022-10-22T09:52:39.962Z,27.10
2022-10-22T09:55:16.286Z,26.00
2022-10-22T09:57:45.412Z,25.10
2022-10-22T10:00:15.974Z,25.90
2022-10-22T10:02:44.527Z,25.30
2022-10-22T10:05:20.480Z,26.00
2022-10-22T10:07:49.061Z,24.70
2022-10-22T10:10:21.856Z,25.30
2022-10-22T10:12:52.704Z,24.90
2022-10-22T10:15:25.683Z,24.30
2022-10-22T10:18:11.057Z,24.10
2022-10-22T10:20:41.648Z,24.60
2022-10-22T10:23:19.529Z,25.00
2022-10-22T10:25:55.161Z,25.00
2022-10-22T10:28:28.579Z,25.30
2022-10-22T10:31:15.690Z,25.10
2022-10-22T10:34:02.463Z,24.70
2022-10-22T10:36:32.559Z,24.30
2022-10-22T10:39:02.711Z,24.60
2022-10-22T10:41:35.782Z,24.30
2022-10-22T10:44:14.940Z,24.80
2022-10-22T10:47:03.104Z,24.60
2022-10-22T10:49:33.223Z,24.90
2022-10-22T10:52:18.874Z,24.80
2022-10-22T10:54:47.435Z,24.30
2022-10-22T10:57:33.838Z,24.10
2022-10-22T11:00:12.976Z,24.80
2022-10-22T11:02:43.137Z,24.70
2022-10-22T11:05:22.007Z,25.60
2022-10-22T11:07:55.772Z,25.20
2022-10-22T11:10:29.771Z,24.90
2022-10-22T11:12:59.862Z,24.90
2022-10-22T11:15:29.987Z,24.80
2022-10-22T11:18:00.074Z,24.70
2022-10-22T11:20:46.744Z,24.70
2022-10-22T11:23:21.282Z,24.90
2022-10-22T11:25:50.639Z,24.90
2022-10-22T11:28:20.732Z,25.10
2022-10-22T11:30:51.549Z,25.00
2022-10-22T11:33:21.641Z,24.80
2022-10-22T11:35:51.068Z,25.10
2022-10-22T11:38:21.161Z,24.90
2022-10-22T11:40:51.303Z,24.70
2022-10-22T11:43:35.158Z,24.30
2022-10-22T11:46:05.270Z,24.30
2022-10-22T11:48:35.368Z,24.70
2022-10-22T11:51:05.021Z,24.80
2022-10-22T11:53:38.833Z,24.80
2022-10-22T11:56:10.630Z,24.70
2022-10-22T11:58:42.375Z,24.60
2022-10-22T12:01:12.555Z,24.20
2022-10-22T12:03:44.076Z,24.20
2022-10-22T12:06:18.595Z,24.60
2022-10-22T12:08:51.723Z,24.50
2022-10-22T12:11:21.953Z,24.10
2022-10-22T12:14:04.351Z,24.10
2022-10-22T12:16:54.811Z,24.00
2022-10-22T12:19:15.364Z,24.40
2022-10-22T12:21:46.072Z,24.40
2022-10-22T12:24:16.504Z,25.20
2022-10-22T12:26:46.956Z,24.70
2022-10-22T12:29:16.375Z,24.90
2022-10-22T12:31:46.006Z,25.20
2022-10-22T12:34:16.746Z,25.20
2022-10-22T12:36:46.799Z,25.10
2022-10-22T12:39:16.896Z,24.70
2022-10-22T12:41:45.918Z,24.80
2022-10-22T12:44:16.029Z,25.00
2022-10-22T12:46:46.415Z,24.90
2022-10-22T12:49:16.505Z,25.00
2022-10-22T12:51:45.707Z,25.20
2022-10-22T12:54:15.859Z,25.50
2022-10-22T12:56:46.119Z,25.20
2022-10-22T12:59:22.315Z,25.30
2022-10-22T13:01:51.611Z,24.90
2022-10-22T13:04:21.810Z,24.90
2022-10-22T13:06:51.922Z,24.70
2022-10-22T13:09:25.231Z,24.90
2022-10-22T13:11:54.885Z,25.30
2022-10-22T13:14:25.016Z,25.00
2022-10-22T13:16:55.168Z,25.20
2022-10-22T13:19:41.761Z,25.10
2022-10-22T13:22:28.388Z,25.20
2022-10-22T13:24:59.417Z,24.70
2022-10-22T13:27:29.624Z,24.80
2022-10-22T13:29:59.734Z,24.80
2022-10-22T13:32:33.468Z,24.90
2022-10-22T13:35:03.697Z,25.00
2022-10-22T13:37:34.793Z,25.40
2022-10-22T13:40:10.127Z,24.90
2022-10-22T13:42:36.666Z,25.10
2022-10-22T13:45:05.379Z,25.10
2022-10-22T13:47:34.711Z,25.00
2022-10-22T13:50:05.385Z,25.00
2022-10-22T13:52:38.517Z,24.90
2022-10-22T13:55:08.938Z,24.80
2022-10-22T13:57:37.563Z,25.00
2022-10-22T14:00:07.245Z,25.00
2022-10-22T14:02:37.623Z,25.00
2022-10-22T14:05:07.997Z,24.90
2022-10-22T14:07:40.322Z,24.80
2022-10-22T14:10:23.134Z,24.90
2022-10-22T14:12:53.808Z,25.10
2022-10-22T14:15:26.568Z,25.40
2022-10-22T14:17:56.739Z,25.30
2022-10-22T14:20:27.388Z,25.20
2022-10-22T14:22:56.448Z,25.30
2022-10-22T14:25:26.793Z,25.30
2022-10-22T14:27:56.834Z,25.30
2022-10-22T14:30:27.027Z,25.30
2022-10-22T14:32:55.662Z,25.20
2022-10-22T14:35:24.830Z,25.30
2022-10-22T14:37:54.651Z,25.40
2022-10-22T14:40:23.209Z,25.20
2022-10-22T14:42:52.886Z,25.20
2022-10-22T14:45:22.985Z,25.20
2022-10-22T14:47:54.166Z,25.00
2022-10-22T14:50:22.853Z,25.00
2022-10-22T14:52:52.100Z,25.20
2022-10-22T14:55:20.728Z,25.00
2022-10-22T14:57:49.401Z,25.00
2022-10-22T15:00:18.738Z,24.90
2022-10-22T15:02:48.480Z,24.80
2022-10-22T15:05:17.800Z,24.80
2022-10-22T15:07:46.375Z,24.80
2022-10-22T15:10:14.944Z,24.80
2022-10-22T15:12:43.557Z,24.80
2022-10-22T15:15:13.133Z,24.70
2022-10-22T15:17:41.808Z,24.70
2022-10-22T15:20:11.428Z,24.70
2022-10-22T15:22:40.899Z,24.70
2022-10-22T15:25:09.902Z,24.70
2022-10-22T15:27:38.602Z,24.70
2022-10-22T15:30:08.755Z,24.60
2022-10-22T15:32:37.328Z,24.50
2022-10-22T15:35:06.268Z,24.50
2022-10-22T15:37:36.477Z,24.50
2022-10-22T15:40:08.218Z,24.50
2022-10-22T15:42:37.477Z,24.50
2022-10-22T15:45:06.215Z,24.40
2022-10-22T15:47:35.076Z,24.40
2022-10-22T15:50:03.806Z,24.30
2022-10-22T15:52:32.539Z,24.30
2022-10-22T15:55:02.847Z,24.20
2022-10-22T15:57:31.536Z,24.20
2022-10-22T16:00:00.262Z,24.10
2022-10-22T16:02:28.951Z,24.10
2022-10-22T16:04:58.882Z,24.00
2022-10-22T16:07:27.520Z,24.00
2022-10-22T16:09:57.142Z,23.90
2022-10-22T16:12:25.851Z,23.80
2022-10-22T16:14:54.593Z,23.70
2022-10-22T16:17:25.424Z,23.70
2022-10-22T16:19:54.723Z,23.60
2022-10-22T16:22:23.255Z,23.60
2022-10-22T16:24:51.838Z,23.50
2022-10-22T16:27:20.399Z,23.40
2022-10-22T16:29:48.954Z,23.40
2022-10-22T16:32:18.593Z,23.40
2022-10-22T16:34:47.131Z,23.30
2022-10-22T16:37:15.716Z,23.20
2022-10-22T16:39:44.632Z,23.20
2022-10-22T16:42:13.235Z,23.10
2022-10-22T16:44:41.817Z,23.00
2022-10-22T16:47:10.407Z,23.00
2022-10-22T16:49:39.058Z,23.00
2022-10-22T16:52:07.620Z,22.90
2022-10-22T16:54:36.240Z,22.80
2022-10-22T16:57:04.878Z,22.70
2022-10-22T16:59:33.511Z,22.60
2022-10-22T17:04:40.419Z,22.50
2022-10-22T17:07:08.987Z,22.50
2022-10-22T17:09:37.915Z,22.40
2022-10-22T17:12:06.586Z,22.40
2022-10-22T17:14:35.949Z,22.30
2022-10-22T17:17:04.487Z,22.30
2022-10-22T17:19:34.194Z,22.20
2022-10-22T17:22:02.744Z,22.20
2022-10-22T17:24:31.306Z,22.10
2022-10-22T17:27:00.180Z,22.10
2022-10-22T17:29:28.786Z,22.00
2022-10-22T17:31:57.346Z,22.00
2022-10-22T17:34:27.102Z,22.00
2022-10-22T17:36:57.302Z,22.00
2022-10-22T17:39:25.935Z,21.90
2022-10-22T17:41:54.514Z,21.80
2022-10-22T17:44:23.148Z,21.70
2022-10-22T17:46:51.706Z,21.70
2022-10-22T17:49:20.969Z,21.70
2022-10-22T17:51:49.633Z,21.60
2022-10-22T17:54:18.262Z,21.50
2022-10-22T17:56:46.846Z,21.50
2022-10-22T17:59:16.958Z,21.40
2022-10-22T18:01:47.181Z,21.40
2022-10-22T18:04:16.900Z,21.40
2022-10-22T18:06:47.024Z,21.30
2022-10-22T18:09:19.596Z,21.30
2022-10-22T18:11:49.549Z,21.20
2022-10-22T18:14:21.886Z,21.20
2022-10-22T18:16:50.919Z,21.20
2022-10-22T18:19:22.320Z,21.20
2022-10-22T18:21:50.903Z,21.20
2022-10-22T18:24:19.660Z,21.10
2022-10-22T18:26:48.722Z,21.00
2022-10-22T18:29:18.482Z,21.00
2022-10-22T18:31:47.938Z,20.90
2022-10-22T18:34:20.255Z,20.90
2022-10-22T18:36:47.777Z,20.90
2022-10-22T18:39:17.586Z,20.90
2022-10-22T18:41:46.217Z,20.90
2022-10-22T18:44:15.209Z,20.70
2022-10-22T18:46:43.767Z,20.80
2022-10-22T18:49:13.885Z,20.80
2022-10-22T18:51:43.367Z,20.70
2022-10-22T18:54:22.542Z,20.60
2022-10-22T18:56:42.205Z,20.60
2022-10-22T18:59:21.377Z,20.60
2022-10-22T19:01:51.498Z,20.50
2022-10-22T19:04:20.930Z,20.50
2022-10-22T19:06:49.494Z,20.50
2022-10-22T19:09:18.524Z,20.50
2022-10-22T19:11:47.122Z,20.50
2022-10-22T19:14:17.328Z,20.50
2022-10-22T19:16:46.065Z,20.50
2022-10-22T19:19:15.997Z,20.40
2022-10-22T19:21:45.207Z,20.50
2022-10-22T19:24:15.031Z,20.40
2022-10-22T19:26:45.277Z,20.40
2022-10-22T19:29:15.766Z,20.30
2022-10-22T19:31:44.479Z,20.30
2022-10-22T19:34:13.105Z,20.30
2022-10-22T19:36:41.789Z,20.30
2022-10-22T19:39:10.372Z,20.30
2022-10-22T19:41:39.403Z,20.30
2022-10-22T19:44:08.044Z,20.30
2022-10-22T19:46:36.997Z,20.30
2022-10-22T19:49:05.713Z,20.20
2022-10-22T19:51:34.642Z,20.20
2022-10-22T19:54:04.735Z,20.10
2022-10-22T19:56:33.996Z,20.10
2022-10-22T19:59:03.552Z,20.20
2022-10-22T20:01:32.518Z,20.10
2022-10-22T20:04:01.784Z,20.10
2022-10-22T20:06:31.512Z,20.10
2022-10-22T20:09:00.187Z,20.10
2022-10-22T20:11:29.596Z,20.00
2022-10-22T20:13:59.594Z,20.00
2022-10-22T20:16:30.002Z,20.00
2022-10-22T20:19:02.922Z,20.00
2022-10-22T20:21:31.567Z,20.00
2022-10-22T20:24:00.289Z,20.00
2022-10-22T20:26:29.457Z,20.00
2022-10-22T20:28:58.283Z,20.00
2022-10-22T20:31:28.815Z,20.00
2022-10-22T20:33:59.115Z,19.90
2022-10-22T20:36:28.258Z,20.00
2022-10-22T20:39:00.357Z,19.90
2022-10-22T20:41:29.648Z,20.00
2022-10-22T20:43:58.275Z,20.00
2022-10-22T20:46:31.718Z,20.00
2022-10-22T20:49:01.824Z,19.90
2022-10-22T20:51:30.880Z,19.80
2022-10-22T20:53:59.451Z,19.90
2022-10-22T20:56:28.168Z,19.80
2022-10-22T20:59:04.748Z,19.80
2022-10-22T21:01:34.850Z,19.80
2022-10-22T21:04:03.424Z,19.70
2022-10-22T21:06:32.352Z,19.70
2022-10-22T21:09:01.058Z,19.60
2022-10-22T21:11:29.667Z,19.60
2022-10-22T21:13:58.294Z,19.60
2022-10-22T21:16:26.862Z,19.70
2022-10-22T21:18:55.489Z,19.70
2022-10-22T21:21:24.111Z,19.70
2022-10-22T21:23:53.230Z,19.70
2022-10-22T21:26:21.887Z,19.70
2022-10-22T21:28:50.480Z,19.70
2022-10-22T21:31:21.399Z,19.70
2022-10-22T21:33:50.801Z,19.70
2022-10-22T21:36:22.960Z,19.60
2022-10-22T21:38:52.502Z,19.50
2022-10-22T21:41:22.676Z,19.60
2022-10-22T21:43:51.707Z,19.50
2022-10-22T21:46:21.646Z,19.50
2022-10-22T21:48:54.717Z,19.50
2022-10-22T21:51:25.925Z,19.60
2022-10-22T21:53:55.284Z,19.60
2022-10-22T21:56:25.502Z,19.60
2022-10-22T21:58:54.233Z,19.50
2022-10-22T22:01:23.049Z,19.60
2022-10-22T22:03:52.666Z,19.60
2022-10-22T22:06:23.063Z,19.60
2022-10-22T22:08:55.596Z,19.60
2022-10-22T22:11:26.285Z,19.60
2022-10-22T22:13:56.812Z,19.60
2022-10-22T22:16:28.602Z,19.60
2022-10-22T22:18:58.998Z,19.70
2022-10-22T22:21:27.705Z,19.60
2022-10-22T22:23:56.332Z,19.60
2022-10-22T22:26:28.600Z,19.60
2022-10-22T22:28:56.259Z,19.70
2022-10-22T22:31:26.265Z,19.60
2022-10-22T22:34:01.762Z,19.70
2022-10-22T22:36:31.849Z,19.70
2022-10-22T22:39:01.078Z,19.70
2022-10-22T22:41:29.782Z,19.70
2022-10-22T22:43:59.090Z,19.70
2022-10-22T22:46:27.725Z,19.60
2022-10-22T22:48:56.296Z,19.60
2022-10-22T22:51:25.383Z,19.50
2022-10-22T22:53:53.935Z,19.60
2022-10-22T22:56:23.819Z,19.60
2022-10-22T22:58:52.453Z,19.50
2022-10-22T23:01:25.438Z,19.50
2022-10-22T23:04:01.685Z,19.60
2022-10-22T23:06:31.431Z,19.50
2022-10-22T23:09:00.306Z,19.50
2022-10-22T23:11:29.239Z,19.50
2022-10-22T23:13:59.883Z,19.50
2022-10-22T23:16:29.934Z,19.50
2022-10-22T23:18:58.878Z,19.50
2022-10-22T23:21:35.228Z,19.50
2022-10-22T23:24:05.378Z,19.50
2022-10-22T23:26:37.923Z,19.50
2022-10-22T23:29:09.410Z,19.50
2022-10-22T23:31:38.774Z,19.50
2022-10-22T23:34:07.456Z,19.50
2022-10-22T23:36:36.787Z,19.50
2022-10-22T23:39:06.215Z,19.50
2022-10-22T23:41:34.762Z,19.60
2022-10-22T23:44:03.914Z,19.50
2022-10-22T23:46:33.907Z,19.50
2022-10-22T23:49:03.251Z,19.50
2022-10-22T23:51:31.909Z,19.50
2022-10-22T23:54:01.950Z,19.50
2022-10-22T23:56:31.688Z,19.50
2022-10-22T23:59:03.597Z,19.40
